Time;durP1;ratioP1;P1;durP2;ratioP2;P2;SDS_P1;SDS_P2;PMS_P1;PMS_P2;Temp;Humidity;BMP_temperature;BMP_pressure;BME280_temperature;BME280_humidity;BME280_pressure;Samples;Min_cycle;Max_cycle;Signal;HPM_P1;HPM_P2
2022/05/26 00:01:23;;;;;;;14.05;3.40;;;14.50;99.90;;;;;;5044938;28;20136;-69
2022/05/26 00:03:49;;;;;;;10.27;3.05;;;14.50;99.90;;;;;;5049545;28;20041;-70
2022/05/26 00:06:17;;;;;;;16.95;3.63;;;14.50;99.90;;;;;;5050023;28;20037;-70
2022/05/26 00:08:44;;;;;;;10.80;3.17;;;14.50;99.90;;;;;;5047796;28;20116;-70
2022/05/26 00:11:12;;;;;;;16.63;3.45;;;14.50;99.90;;;;;;5044026;28;20127;-69
2022/05/26 00:13:39;;;;;;;12.85;2.88;;;14.50;99.90;;;;;;5046444;28;20262;-69
2022/05/26 00:16:06;;;;;;;11.07;3.47;;;14.60;99.90;;;;;;5046686;28;20094;-70
2022/05/26 00:18:31;;;;;;;;;;;14.60;99.90;;;;;;5047578;28;20132;-69
2022/05/26 00:20:57;;;;;;;19.48;3.67;;;14.50;99.90;;;;;;5043491;28;20011;-70
2022/05/26 00:23:23;;;;;;;10.07;2.78;;;14.50;99.90;;;;;;5049857;28;20418;-69
2022/05/26 00:25:48;;;;;;;9.13;3.30;;;14.50;99.90;;;;;;5036788;28;20103;-70
2022/05/26 00:28:14;;;;;;;11.65;3.70;;;14.50;99.90;;;;;;5044829;28;20032;-70
2022/05/26 00:30:40;;;;;;;10.43;3.13;;;14.40;99.90;;;;;;5046958;28;20060;-70
2022/05/26 00:33:08;;;;;;;12.50;3.97;;;14.50;99.90;;;;;;5046660;28;20037;-70
2022/05/26 00:35:36;;;;;;;17.35;3.97;;;14.40;99.90;;;;;;5044055;28;20041;-70
2022/05/26 00:38:06;;;;;;;15.07;3.03;;;14.40;99.90;;;;;;5049998;28;20076;-70
2022/05/26 00:40:32;;;;;;;20.73;3.35;;;14.40;99.90;;;;;;5050657;28;20145;-69
2022/05/26 00:42:59;;;;;;;10.93;3.08;;;14.40;99.90;;;;;;5047590;28;20052;-70
2022/05/26 00:45:36;;;;;;;12.13;3.85;;;14.40;99.90;;;;;;5044553;28;20059;-70
2022/05/26 00:48:06;;;;;;;16.90;4.47;;;14.40;99.90;;;;;;5055217;28;20033;-69
2022/05/26 00:50:40;;;;;;;21.20;3.13;;;14.40;99.90;;;;;;5054548;28;20044;-70
2022/05/26 00:53:38;;;;;;;15.48;2.95;;;14.30;99.90;;;;;;5052214;28;20052;-68
2022/05/26 00:56:18;;;;;;;9.70;2.90;;;14.40;99.90;;;;;;5047163;28;20049;-67
2022/05/26 00:58:47;;;;;;;13.27;3.53;;;14.40;99.90;;;;;;5045362;28;20043;-68
2022/05/26 01:01:13;;;;;;;13.82;4.03;;;14.40;99.90;;;;;;5048803;28;20052;-68
2022/05/26 01:03:45;;;;;;;20.48;2.97;;;14.40;99.90;;;;;;5050877;28;20776;-68
2022/05/26 01:06:16;;;;;;;7.18;2.55;;;14.40;99.90;;;;;;5045804;28;20045;-68
2022/05/26 01:09:00;;;;;;;15.25;3.50;;;14.40;99.90;;;;;;5050174;28;20076;-68
2022/05/26 01:11:32;;;;;;;25.63;4.03;;;14.40;99.90;;;;;;5046076;28;20048;-68
2022/05/26 01:14:06;;;;;;;13.70;3.22;;;14.40;99.90;;;;;;5065883;22;20326;-68
2022/05/26 01:16:43;;;;;;;11.60;3.58;;;14.30;99.90;;;;;;5026073;28;20124;-68
2022/05/26 01:19:46;;;;;;;15.18;3.10;;;14.30;99.90;;;;;;5043117;28;20525;-68
2022/05/26 01:22:18;;;;;;;17.85;4.03;;;14.30;99.90;;;;;;5043441;28;20066;-67
2022/05/26 01:24:52;;;;;;;20.25;3.80;;;14.30;99.90;;;;;;5046951;28;20049;-69
2022/05/26 01:27:24;;;;;;;19.02;3.70;;;14.30;99.90;;;;;;5027960;28;20497;-68
2022/05/26 01:29:55;;;;;;;13.07;3.53;;;14.30;99.90;;;;;;5025063;28;20116;-68
2022/05/26 01:32:48;;;;;;;21.13;4.55;;;14.30;99.90;;;;;;5044095;28;20057;-68
2022/05/26 01:35:16;;;;;;;11.60;2.90;;;14.30;99.90;;;;;;5038388;28;20052;-68
2022/05/26 01:38:09;;;;;;;13.25;3.42;;;14.30;99.90;;;;;;5044314;28;20051;-68
2022/05/26 01:40:52;;;;;;;13.32;3.10;;;14.30;99.90;;;;;;5044307;28;20033;-69
2022/05/26 01:43:40;;;;;;;14.32;3.03;;;14.30;99.90;;;;;;5027350;28;20072;-68
2022/05/26 01:46:11;;;;;;;17.80;3.47;;;14.30;99.90;;;;;;5025454;28;20032;-68
2022/05/26 01:48:55;;;;;;;14.32;4.60;;;14.30;99.90;;;;;;5029502;28;20121;-68
2022/05/26 01:51:24;;;;;;;11.02;3.50;;;14.30;99.90;;;;;;5044230;28;20401;-68
2022/05/26 01:54:14;;;;;;;14.48;2.70;;;14.30;99.90;;;;;;5028758;28;20522;-68
2022/05/26 01:56:58;;;;;;;9.20;3.40;;;14.30;99.90;;;;;;5026933;28;20037;-68
2022/05/26 01:59:29;;;;;;;10.90;2.63;;;14.30;99.90;;;;;;5045303;28;20765;-68
2022/05/26 02:02:00;;;;;;;15.82;3.80;;;14.20;99.90;;;;;;5044770;28;20673;-68
2022/05/26 02:04:56;;;;;;;11.52;2.63;;;14.20;99.90;;;;;;5039622;28;20044;-68
2022/05/26 02:07:35;;;;;;;12.30;3.22;;;14.30;99.90;;;;;;5042625;28;20048;-68
2022/05/26 02:10:07;;;;;;;12.20;3.25;;;14.30;99.90;;;;;;5037615;28;20044;-68
2022/05/26 02:12:37;;;;;;;16.17;3.30;;;14.20;99.90;;;;;;5021993;28;20045;-68
2022/05/26 02:15:13;;;;;;;11.75;2.83;;;14.20;99.90;;;;;;5043805;28;20400;-68
2022/05/26 02:17:44;;;;;;;10.47;3.17;;;14.20;99.90;;;;;;5046159;28;20501;-69
2022/05/26 02:20:12;;;;;;;12.85;3.30;;;14.20;99.90;;;;;;5045420;28;20252;-68
2022/05/26 02:22:51;;;;;;;13.85;3.08;;;14.20;99.90;;;;;;5045467;28;20134;-68
2022/05/26 02:25:19;;;;;;;15.18;2.72;;;14.20;99.90;;;;;;5024744;28;20373;-68
2022/05/26 02:27:49;;;;;;;10.45;2.90;;;14.20;99.90;;;;;;5040378;28;20041;-68
2022/05/26 02:30:15;;;;;;;10.60;2.70;;;14.10;99.90;;;;;;5044470;28;20055;-69
2022/05/26 02:32:50;;;;;;;13.63;2.40;;;14.10;99.90;;;;;;5027852;28;20409;-68
2022/05/26 02:35:28;;;;;;;11.60;2.58;;;14.10;99.90;;;;;;5039163;28;20123;-68
2022/05/26 02:38:01;;;;;;;5.55;2.10;;;14.10;99.90;;;;;;5026248;28;20704;-68
2022/05/26 02:40:27;;;;;;;11.18;2.47;;;14.10;99.90;;;;;;5045113;28;20560;-68
2022/05/26 02:42:59;;;;;;;7.13;2.78;;;14.10;99.90;;;;;;5041810;28;20047;-68
2022/05/26 02:45:49;;;;;;;10.90;1.92;;;14.10;99.90;;;;;;5037886;28;20512;-68
2022/05/26 02:48:29;;;;;;;7.55;1.70;;;14.10;99.90;;;;;;5028599;28;20091;-68
2022/05/26 02:51:17;;;;;;;8.32;1.77;;;14.10;99.90;;;;;;5039895;28;20098;-68
2022/05/26 02:54:06;;;;;;;9.35;1.50;;;14.00;99.90;;;;;;5039614;28;20045;-69
2022/05/26 02:57:01;;;;;;;8.18;1.52;;;14.00;99.90;;;;;;5028849;28;20123;-69
2022/05/26 02:59:57;;;;;;;4.78;1.65;;;14.00;99.90;;;;;;5023433;28;20066;-69
2022/05/26 03:02:29;;;;;;;5.20;1.42;;;14.00;99.90;;;;;;5039282;28;20216;-69
2022/05/26 03:05:17;;;;;;;6.93;1.30;;;14.00;99.90;;;;;;5021252;28;20417;-69
2022/05/26 03:07:46;;;;;;;3.60;1.40;;;13.90;99.90;;;;;;5034128;28;20033;-68
2022/05/26 03:10:13;;;;;;;6.68;1.38;;;13.90;99.90;;;;;;5017315;28;20041;-68
2022/05/26 03:12:38;;;;;;;4.50;1.58;;;13.90;99.90;;;;;;5035822;28;20041;-68
2022/05/26 03:15:06;;;;;;;6.53;1.55;;;13.90;99.90;;;;;;5039816;28;20063;-68
2022/05/26 03:17:32;;;;;;;7.90;1.92;;;13.80;99.90;;;;;;5036786;28;20045;-68
2022/05/26 03:19:58;;;;;;;4.30;1.17;;;13.80;99.90;;;;;;5046869;28;20043;-68
2022/05/26 03:22:23;;;;;;;10.63;1.63;;;13.80;99.90;;;;;;5043517;28;20186;-69
2022/05/26 03:24:51;;;;;;;5.27;1.97;;;13.70;99.90;;;;;;5038236;28;20079;-69
2022/05/26 03:27:16;;;;;;;3.75;1.33;;;13.70;99.90;;;;;;5037047;28;20069;-68
2022/05/26 03:29:42;;;;;;;4.90;1.10;;;13.70;99.90;;;;;;5037666;28;20071;-68
2022/05/26 03:32:08;;;;;;;5.97;1.83;;;13.70;99.90;;;;;;5026869;28;20068;-67
2022/05/26 03:42:50;;;;;;;;;;;13.60;99.90;;;;;;5043067;28;20431;-67
2022/05/26 03:45:22;;;;;;;7.35;0.98;;;13.50;99.90;;;;;;5041821;28;19986;-67
2022/05/26 03:47:48;;;;;;;9.38;0.88;;;13.60;99.90;;;;;;5038460;28;20036;-67
2022/05/26 03:50:14;;;;;;;9.57;1.42;;;13.50;99.90;;;;;;5035071;28;20183;-68
2022/05/26 03:52:39;;;;;;;3.77;1.10;;;13.50;99.90;;;;;;5022362;28;20040;-68
2022/05/26 03:55:05;;;;;;;4.47;1.00;;;13.50;99.90;;;;;;5038563;28;20133;-67
2022/05/26 03:57:31;;;;;;;3.60;0.90;;;13.50;99.90;;;;;;5034253;28;20052;-67
2022/05/26 03:59:58;;;;;;;3.72;0.82;;;13.50;99.90;;;;;;5041246;28;20086;-68
2022/05/26 04:02:24;;;;;;;4.05;1.20;;;13.50;99.90;;;;;;5038850;28;20091;-67
2022/05/26 04:04:50;;;;;;;3.25;0.93;;;13.50;99.90;;;;;;5049321;28;20094;-67
2022/05/26 04:07:16;;;;;;;2.25;0.90;;;13.50;99.90;;;;;;5036966;28;20051;-67
2022/05/26 04:09:41;;;;;;;5.15;1.55;;;13.50;99.90;;;;;;5042861;28;20033;-68
2022/05/26 04:12:09;;;;;;;1.98;0.65;;;13.50;99.90;;;;;;5032379;28;20098;-67
2022/05/26 04:14:34;;;;;;;2.33;0.70;;;13.50;99.90;;;;;;5026391;28;20449;-67
2022/05/26 04:17:00;;;;;;;3.70;0.73;;;13.50;99.90;;;;;;5043500;28;20132;-67
2022/05/26 04:19:26;;;;;;;2.95;0.68;;;13.50;99.90;;;;;;5045998;28;20032;-67
2022/05/26 04:24:37;;;;;;;5.93;1.02;;;13.40;99.90;;;;;;5038541;28;20285;-67
2022/05/26 04:27:04;;;;;;;3.63;1.33;;;13.40;99.90;;;;;;5042374;28;20068;-67
2022/05/26 04:29:30;;;;;;;5.68;1.15;;;13.40;99.90;;;;;;5023868;28;20048;-67
2022/05/26 04:31:55;;;;;;;3.15;0.85;;;13.40;99.90;;;;;;5039991;28;20040;-67
2022/05/26 04:34:21;;;;;;;2.73;0.90;;;13.40;99.90;;;;;;5007576;28;20397;-67
2022/05/26 04:36:47;;;;;;;5.57;0.98;;;13.40;99.90;;;;;;5039503;28;20482;-67
2022/05/26 04:39:14;;;;;;;5.90;1.00;;;13.40;99.90;;;;;;5038545;28;20034;-67
2022/05/26 04:41:41;;;;;;;2.35;1.25;;;13.40;99.90;;;;;;5041055;28;20080;-67
2022/05/26 04:44:08;;;;;;;4.88;0.68;;;13.40;99.90;;;;;;5014539;28;20477;-67
2022/05/26 04:46:33;;;;;;;;;;;13.50;99.90;;;;;;4998251;28;20573;-67
2022/05/26 04:48:59;;;;;;;3.45;0.85;;;13.60;99.90;;;;;;5038098;28;20012;-67
2022/05/26 04:51:24;;;;;;;5.17;1.00;;;13.70;99.90;;;;;;5031100;28;20045;-67
2022/05/26 04:53:50;;;;;;;1.43;0.80;;;13.80;99.90;;;;;;5036440;28;20275;-67
2022/05/26 04:56:15;;;;;;;3.87;1.10;;;13.80;99.90;;;;;;5035686;28;20291;-67
2022/05/26 04:58:41;;;;;;;7.63;1.17;;;13.80;99.90;;;;;;5039958;28;20036;-67
2022/05/26 05:01:14;;;;;;;3.47;0.80;;;13.70;99.90;;;;;;5040797;28;20076;-67
2022/05/26 05:03:40;;;;;;;3.78;0.80;;;13.70;99.90;;;;;;5038687;28;20045;-67
2022/05/26 05:06:06;;;;;;;4.93;1.05;;;13.70;99.90;;;;;;5037731;28;20507;-67
2022/05/26 05:08:31;;;;;;;5.17;0.97;;;13.80;99.90;;;;;;5038460;28;20059;-67
2022/05/26 05:10:57;;;;;;;6.37;1.53;;;13.90;99.90;;;;;;5013890;28;20040;-67
2022/05/26 05:13:23;;;;;;;4.90;0.68;;;13.90;99.90;;;;;;5004406;28;20076;-67
2022/05/26 05:16:03;;;;;;;;;;;13.90;99.90;;;;;;5037289;28;20040;-67
2022/05/26 05:18:28;;;;;;;1.60;0.50;;;13.90;99.90;;;;;;5025918;28;19917;-67
2022/05/26 05:20:59;;;;;;;4.57;0.85;;;13.80;99.90;;;;;;5039250;28;20093;-68
2022/05/26 05:23:26;;;;;;;2.50;0.47;;;13.80;99.90;;;;;;5018689;28;20053;-68
2022/05/26 05:25:53;;;;;;;3.05;0.70;;;13.90;99.90;;;;;;5021581;28;20059;-67
2022/05/26 05:28:26;;;;;;;3.78;0.80;;;13.80;99.90;;;;;;5041203;28;20156;-67
2022/05/26 05:30:56;;;;;;;3.85;1.08;;;13.80;99.90;;;;;;5019789;28;20440;-67
2022/05/26 05:33:24;;;;;;;3.30;0.50;;;13.80;99.90;;;;;;5044255;28;20052;-67
2022/05/26 05:36:16;;;;;;;5.70;0.75;;;13.90;99.90;;;;;;5043044;28;20393;-67
2022/05/26 05:38:43;;;;;;;1.30;0.50;;;13.90;99.90;;;;;;5044083;28;20040;-67
2022/05/26 05:41:09;;;;;;;2.55;0.60;;;13.90;99.90;;;;;;5022398;28;20458;-67
2022/05/26 05:43:36;;;;;;;4.60;0.70;;;13.90;99.90;;;;;;5040943;28;20080;-67
2022/05/26 05:46:01;;;;;;;;;;;14.00;99.90;;;;;;5024487;28;20041;-67
2022/05/26 05:48:27;;;;;;;2.75;0.60;;;14.00;99.90;;;;;;5037725;28;20388;-67
2022/05/26 05:50:53;;;;;;;3.75;0.93;;;14.00;99.90;;;;;;5026924;28;20108;-67
2022/05/26 05:53:19;;;;;;;4.53;0.65;;;14.10;99.90;;;;;;5015391;28;20039;-68
2022/05/26 05:55:47;;;;;;;3.53;1.43;;;14.10;99.90;;;;;;5041191;28;20505;-67
2022/05/26 05:58:13;;;;;;;2.85;0.95;;;14.10;99.90;;;;;;5028169;28;20137;-67
2022/05/26 06:00:40;;;;;;;2.45;0.75;;;14.20;99.90;;;;;;5003495;28;20441;-67
2022/05/26 06:03:06;;;;;;;5.45;0.88;;;14.20;99.90;;;;;;5042420;28;20052;-67
2022/05/26 06:05:32;;;;;;;7.47;0.70;;;14.20;99.90;;;;;;5025014;28;20072;-68
2022/05/26 06:07:59;;;;;;;7.28;1.05;;;14.30;99.90;;;;;;5047720;28;20365;-67
2022/05/26 06:10:25;;;;;;;5.82;1.50;;;14.40;99.90;;;;;;5015469;28;20041;-67
2022/05/26 06:12:51;;;;;;;5.53;0.68;;;14.50;99.90;;;;;;5034440;28;20044;-68
2022/05/26 06:15:18;;;;;;;2.13;0.82;;;14.50;99.90;;;;;;5040856;28;20037;-68
2022/05/26 06:17:43;;;;;;;5.25;0.98;;;14.60;99.90;;;;;;5035410;28;20048;-68
2022/05/26 06:20:11;;;;;;;3.15;0.80;;;14.70;99.90;;;;;;5043282;28;20040;-68
2022/05/26 06:22:44;;;;;;;1.42;0.60;;;14.70;99.90;;;;;;5042525;28;20090;-68
2022/05/26 06:25:11;;;;;;;5.22;0.80;;;14.80;99.90;;;;;;5038090;28;20202;-68
2022/05/26 06:30:22;;;;;;;3.75;0.50;;;14.90;99.90;;;;;;5040725;28;20421;-68
2022/05/26 06:38:20;;;;;;;2.97;0.80;;;15.00;99.90;;;;;;5041036;28;20045;-68
2022/05/26 06:40:46;;;;;;;4.32;0.75;;;15.10;99.90;;;;;;5042348;28;20091;-68
2022/05/26 06:43:14;;;;;;;2.40;0.70;;;15.10;99.90;;;;;;5043923;28;20359;-68
2022/05/26 06:45:41;;;;;;;1.85;0.65;;;15.20;99.90;;;;;;5039044;28;20037;-68
2022/05/26 06:48:08;;;;;;;8.88;1.00;;;15.20;99.90;;;;;;5040343;28;20450;-67
2022/05/26 06:50:34;;;;;;;0.95;0.40;;;15.10;99.90;;;;;;5040780;28;20500;-67
2022/05/26 06:53:00;;;;;;;3.88;0.50;;;15.10;99.90;;;;;;5033984;28;20044;-68
2022/05/26 06:55:25;;;;;;;1.27;0.40;;;15.00;99.90;;;;;;5023891;28;20049;-67
2022/05/26 06:57:51;;;;;;;7.28;0.70;;;15.00;99.90;;;;;;5023729;28;20366;-68
2022/05/26 07:00:18;;;;;;;4.88;0.75;;;15.00;99.90;;;;;;5032989;28;20413;-68
2022/05/26 07:02:44;;;;;;;2.13;0.50;;;15.00;99.90;;;;;;5042904;28;20041;-68
2022/05/26 07:05:11;;;;;;;4.10;0.77;;;15.00;99.90;;;;;;5036891;28;20042;-68
2022/05/26 07:07:40;;;;;;;3.10;0.60;;;15.00;99.90;;;;;;5039615;28;20044;-68
2022/05/26 07:10:08;;;;;;;5.65;0.70;;;15.00;99.90;;;;;;5021261;28;20516;-68
2022/05/26 07:12:35;;;;;;;3.80;0.60;;;15.10;99.90;;;;;;5036200;28;20025;-68
2022/05/26 07:15:03;;;;;;;4.05;1.02;;;15.10;99.90;;;;;;5044373;28;20071;-67
2022/05/26 07:17:29;;;;;;;2.85;0.70;;;15.10;99.90;;;;;;5022018;28;20437;-67
2022/05/26 07:19:54;;;;;;;2.30;0.90;;;15.20;99.90;;;;;;5046917;28;20067;-68
2022/05/26 07:22:20;;;;;;;4.57;0.80;;;15.30;99.90;;;;;;5040418;28;20040;-68
2022/05/26 07:24:48;;;;;;;3.43;0.90;;;15.30;99.90;;;;;;5039790;28;20131;-68
2022/05/26 07:27:13;;;;;;;3.60;0.60;;;15.30;99.90;;;;;;5042223;28;20295;-67
2022/05/26 07:29:39;;;;;;;4.93;0.68;;;15.30;99.90;;;;;;5040699;28;20371;-67
2022/05/26 07:32:05;;;;;;;5.10;0.73;;;15.30;99.90;;;;;;5036741;28;20069;-68
2022/05/26 07:34:31;;;;;;;5.25;0.90;;;15.40;99.90;;;;;;5041038;28;20444;-68
2022/05/26 07:42:29;;;;;;;5.65;1.08;;;15.30;99.90;;;;;;5038099;28;20041;-67
2022/05/26 07:44:55;;;;;;;5.93;0.70;;;15.40;99.90;;;;;;5043172;28;20683;-67
2022/05/26 07:47:26;;;;;;;2.58;0.50;;;15.40;99.90;;;;;;5037504;28;20033;-68
2022/05/26 07:49:52;;;;;;;3.67;0.95;;;15.40;99.90;;;;;;5019565;28;20033;-67
2022/05/26 07:52:18;;;;;;;5.30;0.85;;;15.40;99.90;;;;;;5041283;28;20401;-67
2022/05/26 07:54:44;;;;;;;4.57;0.70;;;15.50;99.90;;;;;;5034270;28;20052;-68
2022/05/26 07:57:23;;;;;;;3.67;1.00;;;15.50;99.90;;;;;;5041333;28;20375;-68
2022/05/26 07:59:50;;;;;;;7.70;1.27;;;15.50;99.90;;;;;;5026298;28;20309;-68
2022/05/26 08:02:17;;;;;;;6.20;0.55;;;15.50;99.90;;;;;;5037164;28;20029;-67
2022/05/26 08:04:43;;;;;;;2.63;0.90;;;15.60;99.90;;;;;;5039141;28;20106;-67
2022/05/26 08:07:08;;;;;;;3.15;0.57;;;15.60;99.90;;;;;;5038899;28;20044;-67
2022/05/26 08:09:37;;;;;;;6.18;1.55;;;15.70;99.90;;;;;;5026325;28;20040;-68
2022/05/26 08:12:05;;;;;;;1.63;0.43;;;15.60;99.90;;;;;;5018110;28;20133;-68
2022/05/26 08:14:30;;;;;;;3.15;0.73;;;15.70;99.90;;;;;;5038663;28;20456;-68
2022/05/26 08:16:56;;;;;;;1.53;0.63;;;15.60;99.90;;;;;;5019841;28;20110;-67
2022/05/26 08:19:21;;;;;;;3.33;0.70;;;15.60;99.90;;;;;;5041921;28;20294;-68
2022/05/26 08:21:48;;;;;;;7.07;1.50;;;15.70;99.90;;;;;;5040009;28;20292;-67
2022/05/26 08:24:16;;;;;;;5.40;0.88;;;15.70;99.90;;;;;;5018071;28;20049;-67
2022/05/26 08:26:41;;;;;;;4.18;0.60;;;15.80;99.90;;;;;;5047565;28;20040;-67
2022/05/26 08:29:07;;;;;;;2.33;1.00;;;15.80;99.90;;;;;;5021919;28;20115;-68
2022/05/26 08:31:33;;;;;;;5.00;0.93;;;15.80;99.90;;;;;;5037375;28;20458;-68
2022/05/26 08:33:58;;;;;;;3.00;0.70;;;15.80;99.90;;;;;;5037783;28;20403;-68
2022/05/26 08:36:28;;;;;;;3.97;0.80;;;15.90;99.90;;;;;;5024418;28;20482;-68
2022/05/26 08:38:55;;;;;;;3.97;0.68;;;15.90;99.90;;;;;;5045702;28;20413;-68
2022/05/26 08:41:28;;;;;;;2.83;0.50;;;15.90;99.90;;;;;;5044819;28;20087;-67
2022/05/26 08:43:53;;;;;;;2.50;0.70;;;16.00;99.90;;;;;;5026007;28;20642;-68
2022/05/26 08:46:20;;;;;;;3.07;0.40;;;16.10;99.90;;;;;;5038662;28;20130;-68
2022/05/26 08:48:53;;;;;;;3.47;0.50;;;16.10;99.90;;;;;;5038730;28;20325;-67
2022/05/26 08:51:33;;;;;;;2.70;0.75;;;16.20;99.90;;;;;;5040077;28;20132;-68
2022/05/26 08:53:59;;;;;;;3.03;0.50;;;16.20;99.90;;;;;;5016354;28;20573;-67
2022/05/26 08:56:27;;;;;;;3.50;0.50;;;16.20;99.90;;;;;;5022811;28;20049;-68
2022/05/26 08:59:01;;;;;;;1.35;0.60;;;16.20;99.90;;;;;;5044183;28;20045;-67
2022/05/26 09:01:31;;;;;;;3.03;0.90;;;16.20;99.90;;;;;;5038759;28;20033;-68
2022/05/26 09:03:58;;;;;;;2.03;0.40;;;16.20;99.90;;;;;;5042588;28;20548;-68
2022/05/26 09:06:25;;;;;;;1.83;0.88;;;16.20;99.90;;;;;;5017161;28;20055;-68
2022/05/26 09:14:23;;;;;;;4.05;1.05;;;16.30;99.90;;;;;;5045523;28;20493;-68
2022/05/26 09:16:54;;;;;;;1.27;0.60;;;16.50;99.90;;;;;;5040372;28;20237;-68
2022/05/26 09:19:21;;;;;;;2.08;0.60;;;16.60;99.90;;;;;;5046261;28;20076;-68
2022/05/26 09:21:49;;;;;;;1.25;0.47;;;16.60;99.90;;;;;;5025843;28;20062;-68
2022/05/26 09:24:17;;;;;;;1.92;0.60;;;16.60;99.90;;;;;;5036496;28;20098;-68
2022/05/26 09:26:48;;;;;;;3.08;0.73;;;16.60;99.90;;;;;;5040574;28;20037;-67
2022/05/26 09:29:15;;;;;;;1.45;0.40;;;16.70;99.90;;;;;;5045298;28;23054;-67
2022/05/26 09:31:49;;;;;;;1.30;0.47;;;16.90;99.90;;;;;;5041280;28;20042;-68
2022/05/26 09:34:21;;;;;;;2.47;0.40;;;17.00;99.90;;;;;;5037545;28;20045;-68
2022/05/26 09:36:53;;;;;;;2.17;0.73;;;17.20;99.90;;;;;;5041234;28;20107;-67
2022/05/26 09:39:25;;;;;;;2.17;0.40;;;17.30;99.90;;;;;;5025566;28;20440;-68
2022/05/26 09:42:02;;;;;;;3.28;0.77;;;17.40;99.90;;;;;;5041501;28;20043;-68
2022/05/26 09:44:46;;;;;;;3.00;0.60;;;17.50;99.90;;;;;;5026983;28;20052;-68
2022/05/26 09:47:32;;;;;;;4.65;0.63;;;17.50;99.90;;;;;;5041937;28;20581;-69
2022/05/26 09:50:04;;;;;;;3.45;0.77;;;17.50;99.90;;;;;;5027674;28;20482;-67
2022/05/26 09:52:42;;;;;;;2.55;0.55;;;17.30;99.90;;;;;;5016290;28;20426;-67
2022/05/26 09:55:24;;;;;;;1.13;0.60;;;17.20;99.90;;;;;;5043660;28;20110;-68
2022/05/26 09:58:05;;;;;;;4.22;0.60;;;17.10;99.90;;;;;;5046069;28;20037;-67
2022/05/26 10:00:39;;;;;;;5.25;0.75;;;17.20;99.90;;;;;;5030605;28;20041;-68
2022/05/26 10:03:38;;;;;;;2.58;0.45;;;17.40;99.90;;;;;;5023980;28;20115;-68
2022/05/26 10:06:23;;;;;;;4.03;0.50;;;17.50;99.90;;;;;;5013572;28;20571;-68
2022/05/26 10:09:42;;;;;;;1.85;0.90;;;17.60;99.90;;;;;;5035379;28;20041;-68
2022/05/26 10:12:28;;;;;;;2.38;0.50;;;17.60;99.90;;;;;;4974980;28;20038;-68
2022/05/26 10:15:12;;;;;;;1.52;0.47;;;17.60;99.90;;;;;;5030001;28;20053;-68
2022/05/26 10:18:05;;;;;;;2.10;0.65;;;17.60;99.90;;;;;;5020402;28;20038;-68
2022/05/26 10:20:49;;;;;;;0.95;0.40;;;17.70;99.90;;;;;;5041643;28;20504;-68
2022/05/26 10:23:33;;;;;;;1.02;0.30;;;17.70;99.90;;;;;;5019293;28;21902;-67
2022/05/26 10:26:15;;;;;;;1.52;0.60;;;17.70;99.90;;;;;;5030187;28;20459;-68
2022/05/26 10:29:09;;;;;;;3.97;1.20;;;17.60;99.90;;;;;;5038616;28;20140;-68
2022/05/26 10:31:53;;;;;;;8.25;2.45;;;17.70;99.90;;;;;;5011400;28;20052;-68
2022/05/26 10:34:40;;;;;;;3.83;1.30;;;17.60;99.90;;;;;;5020363;28;20047;-68
2022/05/26 10:37:24;;;;;;;2.80;0.93;;;17.60;99.90;;;;;;5040333;28;20040;-69
2022/05/26 10:40:20;;;;;;;3.70;1.35;;;17.60;99.90;;;;;;5040911;28;20067;-68
2022/05/26 10:43:05;;;;;;;4.28;1.23;;;17.70;99.90;;;;;;5027344;28;20110;-67
2022/05/26 10:45:41;;;;;;;4.07;0.85;;;17.80;99.90;;;;;;5035942;28;20033;-68
2022/05/26 10:48:21;;;;;;;2.70;0.90;;;17.90;99.90;;;;;;5024647;28;20041;-67
2022/05/26 10:51:16;;;;;;;1.15;0.50;;;17.90;99.90;;;;;;5038381;28;20060;-67
2022/05/26 10:53:48;;;;;;;2.70;0.80;;;17.80;99.90;;;;;;5023659;28;20496;-67
2022/05/26 10:56:52;;;;;;;5.28;1.10;;;17.90;99.90;;;;;;5022713;28;20144;-68
2022/05/26 10:59:30;;;;;;;3.85;1.95;;;17.80;99.90;;;;;;5039524;28;20378;-67
2022/05/26 11:02:12;;;;;;;5.40;1.05;;;17.70;99.90;;;;;;5022989;28;20555;-67
2022/05/26 11:05:01;;;;;;;2.05;0.70;;;17.70;99.90;;;;;;5026971;28;20049;-67
2022/05/26 11:07:43;;;;;;;4.65;1.02;;;17.70;99.90;;;;;;5009139;28;20041;-68
2022/05/26 11:10:31;;;;;;;4.43;0.90;;;17.60;99.90;;;;;;5043655;28;20514;-68
2022/05/26 11:13:19;;;;;;;6.63;2.38;;;17.70;99.90;;;;;;5015284;28;20201;-68
2022/05/26 11:19:15;;;;;;;1.75;0.63;;;18.00;99.90;;;;;;5003340;28;20053;-67
2022/05/26 11:21:41;;;;;;;3.95;0.82;;;18.10;99.90;;;;;;5042204;28;20505;-68
2022/05/26 11:24:10;;;;;;;4.57;1.35;;;18.10;99.90;;;;;;5045501;28;20068;-68
2022/05/26 11:26:53;;;;;;;6.35;0.98;;;18.00;99.90;;;;;;5037997;28;20242;-67
2022/05/26 11:29:52;;;;;;;6.22;1.40;;;18.10;99.90;;;;;;5039227;28;20045;-68
2022/05/26 11:38:37;;;;;;;5.47;0.77;;;18.60;99.90;;;;;;5038789;28;20516;-68
2022/05/26 11:41:09;;;;;;;1.98;0.57;;;18.80;99.90;;;;;;5008012;28;20061;-67
2022/05/26 11:43:46;;;;;;;3.55;1.05;;;18.90;99.90;;;;;;5039563;28;20037;-68
2022/05/26 11:46:31;;;;;;;;;;;18.80;99.90;;;;;;5013140;28;20524;-68
2022/05/26 11:48:57;;;;;;;2.10;0.45;;;18.70;99.90;;;;;;5023523;28;19970;-68
2022/05/26 11:51:25;;;;;;;3.47;1.05;;;18.60;99.90;;;;;;5044177;28;20465;-68
2022/05/26 11:53:51;;;;;;;3.17;0.90;;;18.60;99.90;;;;;;5040128;28;20052;-68
2022/05/26 11:56:30;;;;;;;6.38;1.05;;;18.50;99.90;;;;;;5007637;28;20045;-68
2022/05/26 11:59:17;;;;;;;5.93;1.52;;;18.50;99.90;;;;;;5040053;28;20118;-67
2022/05/26 12:01:56;;;;;;;4.65;0.75;;;18.60;99.90;;;;;;5039618;28;21932;-67
2022/05/26 12:04:32;;;;;;;2.58;0.70;;;18.70;99.90;;;;;;5019477;28;20076;-68
2022/05/26 12:07:25;;;;;;;5.22;1.15;;;18.70;99.90;;;;;;5033778;28;20478;-67
2022/05/26 12:09:54;;;;;;;4.35;0.85;;;18.70;99.90;;;;;;5038825;28;20037;-68
2022/05/26 12:12:23;;;;;;;3.38;0.98;;;18.60;99.90;;;;;;5018715;28;20040;-68
2022/05/26 12:14:52;;;;;;;2.08;0.70;;;18.70;99.90;;;;;;5020528;28;20045;-68
2022/05/26 12:17:30;;;;;;;5.13;0.60;;;18.70;99.90;;;;;;5023753;28;20049;-68
2022/05/26 12:20:18;;;;;;;4.10;1.52;;;18.60;99.90;;;;;;5022785;28;20068;-68
2022/05/26 12:22:47;;;;;;;3.40;0.70;;;18.50;99.90;;;;;;5030065;28;20254;-67
2022/05/26 12:25:22;;;;;;;1.60;0.68;;;18.40;99.90;;;;;;5035739;28;20253;-67
2022/05/26 12:27:59;;;;;;;2.13;0.68;;;18.40;99.90;;;;;;5038867;28;20045;-68
2022/05/26 12:30:30;;;;;;;1.92;0.70;;;18.40;99.90;;;;;;5020623;28;20099;-67
2022/05/26 12:32:56;;;;;;;2.08;0.52;;;18.40;99.90;;;;;;5019384;28;20041;-67
2022/05/26 12:35:49;;;;;;;2.53;0.80;;;18.40;99.90;;;;;;5037396;28;20047;-70
2022/05/26 12:38:28;;;;;;;3.80;0.70;;;18.30;99.90;;;;;;5008306;28;20111;-70
2022/05/26 12:41:13;;;;;;;2.70;0.57;;;18.40;99.90;;;;;;5042265;28;20429;-70
2022/05/26 12:43:59;;;;;;;3.22;0.65;;;18.40;99.90;;;;;;5039861;28;20440;-70
2022/05/26 12:46:32;;;;;;;3.42;0.88;;;18.40;99.90;;;;;;5016718;28;20047;-69
2022/05/26 12:49:14;;;;;;;1.48;0.47;;;18.40;99.90;;;;;;5026729;28;20069;-69
2022/05/26 12:51:40;;;;;;;6.65;1.52;;;18.40;99.90;;;;;;5046622;28;20582;-70
2022/05/26 12:54:18;;;;;;;4.47;1.35;;;18.50;99.90;;;;;;5029378;28;20041;-69
2022/05/26 12:56:52;;;;;;;2.58;0.77;;;18.50;99.90;;;;;;5044596;28;20033;-70
2022/05/26 12:59:22;;;;;;;4.07;1.27;;;18.50;99.90;;;;;;5024066;28;20041;-69
2022/05/26 13:01:48;;;;;;;2.00;0.88;;;18.40;99.90;;;;;;5040862;28;20444;-69
2022/05/26 13:04:22;;;;;;;;;;;18.40;99.90;;;;;;5038635;28;20386;-69
2022/05/26 13:06:53;;;;;;;2.47;0.60;;;18.30;99.90;;;;;;5028520;28;20075;-70
2022/05/26 13:09:24;;;;;;;3.60;0.90;;;18.30;99.90;;;;;;5028201;28;20420;-70
2022/05/26 13:11:57;;;;;;;6.85;1.00;;;18.30;99.90;;;;;;5038134;28;20140;-69
2022/05/26 13:14:46;;;;;;;6.30;1.25;;;18.20;99.90;;;;;;5060665;22;20045;-71
2022/05/26 13:17:18;;;;;;;3.78;0.70;;;18.10;99.90;;;;;;5058160;28;20044;-72
2022/05/26 13:19:48;;;;;;;1.95;0.60;;;18.10;99.90;;;;;;5036028;28;20449;-76
2022/05/26 13:22:22;;;;;;;5.28;1.00;;;18.20;99.90;;;;;;5049219;28;20421;-69
2022/05/26 13:24:53;;;;;;;6.18;1.23;;;18.20;99.90;;;;;;5030753;28;20040;-70
2022/05/26 13:27:19;;;;;;;1.75;0.80;;;18.10;99.90;;;;;;5029011;28;20045;-73
2022/05/26 13:29:47;;;;;;;3.80;1.20;;;18.10;99.90;;;;;;5045884;28;20374;-71
2022/05/26 13:35:18;;;;;;;3.15;1.17;;;18.20;99.90;;;;;;5014698;28;20180;-70
2022/05/26 13:37:44;;;;;;;1.98;0.77;;;18.30;99.90;;;;;;5028364;28;20048;-69
2022/05/26 13:40:21;;;;;;;5.10;2.03;;;18.30;99.90;;;;;;5047636;28;20041;-69
2022/05/26 13:42:50;;;;;;;8.77;1.33;;;18.30;99.90;;;;;;5048387;28;20095;-70
2022/05/26 13:45:28;;;;;;;4.25;1.52;;;18.20;99.90;;;;;;5044684;28;20033;-68
2022/05/26 13:48:28;;;;;;;11.52;2.40;;;18.10;99.90;;;;;;5046529;28;20492;-69
2022/05/26 13:51:17;;;;;;;4.93;1.48;;;18.10;99.90;;;;;;5033123;28;20060;-69
2022/05/26 13:53:55;;;;;;;4.30;2.20;;;18.10;99.90;;;;;;5026873;28;20091;-69
2022/05/26 13:56:33;;;;;;;8.00;2.22;;;18.00;99.90;;;;;;5045237;28;20059;-68